Michalis L — A8TZ8 — position and weather

sailwx.info

Track history (hours):
 
Tides and Currents Weather Stations Pressure Air Temp Water Temp Dewpoint Dewpoint Depression Visibility Wind Speed Wind Dir Waves Ship Positions

Michalis L

Last reported at 2014-Aug-29 20:18 UTC. Time now 2014-Sep-02 21:23 UTC.
Position S 34°49' E 021°58'.

Length 230 m; draft 14.9 m.

Type: Cargo ship. MMSI: 636014462.

Date/timePositionNaut miles runAvg speedWind from/ knotsBaromVisibWave heightAir tempDewpointWater temp
2014-Aug-29 20:18S 34°49' E 021°58'136 8.5
2014-Aug-29 04:11S 34°26' E 024°42'309 8.4
2014-Aug-27 15:33S 33°01' E 030°39'1010.5
2014-Aug-27 14:33S 32°57' E 030°50'1111.3
2014-Aug-27 13:33S 32°54' E 031°03'1111.2
2014-Aug-27 12:33S 32°51' E 031°16'1411.2
2014-Aug-27 11:17S 32°47' E 031°32'4811.6
2014-Aug-27 07:09S 32°32' E 032°26'1011.1
2014-Aug-27 06:13S 32°26' E 032°36'  
Track history (hours):
 
Tides and Currents Weather Stations Pressure Air Temp Water Temp Dewpoint Dewpoint Depression Visibility Wind Speed Wind Dir Waves Ship Positions

Michalis L

Last reported at 2014-Aug-29 20:18 UTC. Time now 2014-Sep-02 21:23 UTC.
Position S 34°49' E 021°58'.

Length 230 m; draft 14.9 m.

Type: Cargo ship. MMSI: 636014462.

Date/timePositionNaut miles runAvg speedWind from/ knotsBaromVisibWave heightAir tempDewpointWater temp
2014-Aug-29 20:18S 34°49' E 021°58'136 8.5
2014-Aug-29 04:11S 34°26' E 024°42'309 8.4
2014-Aug-27 15:33S 33°01' E 030°39'1010.5
2014-Aug-27 14:33S 32°57' E 030°50'1111.3
2014-Aug-27 13:33S 32°54' E 031°03'1111.2
2014-Aug-27 12:33S 32°51' E 031°16'1411.2
2014-Aug-27 11:17S 32°47' E 031°32'4811.6
2014-Aug-27 07:09S 32°32' E 032°26'1011.1
2014-Aug-27 06:13S 32°26' E 032°36'  

Dump ship's entire track history